createdAt,value
2023-02-06T00:01:07.040Z,40.8
2023-02-06T00:02:17.000Z,40.8
2023-02-06T00:03:27.275Z,40.8
2023-02-06T00:04:37.398Z,40.8
2023-02-06T00:05:47.000Z,40.8
2023-02-06T00:06:57.624Z,40.8
2023-02-06T00:08:07.000Z,40.8
2023-02-06T00:09:17.000Z,40.8
2023-02-06T00:10:27.000Z,40.8
2023-02-06T00:11:38.000Z,40.8
2023-02-06T00:13:58.000Z,40.8
2023-02-06T00:15:08.000Z,40.8
2023-02-06T00:16:17.565Z,40.8
2023-02-06T00:17:27.684Z,40.7
2023-02-06T00:18:37.799Z,40.7
2023-02-06T00:19:47.000Z,40.8
2023-02-06T00:20:58.000Z,40.7
2023-02-06T00:22:08.000Z,40.7
2023-02-06T00:23:18.000Z,40.7
2023-02-06T00:24:28.381Z,40.7
2023-02-06T00:25:38.000Z,40.7
2023-02-06T00:26:48.000Z,40.7
2023-02-06T00:27:58.000Z,40.7
2023-02-06T00:29:08.000Z,40.7
2023-02-06T00:30:18.000Z,40.7
2023-02-06T00:31:28.000Z,40.7
2023-02-06T00:32:38.199Z,40.7
2023-02-06T00:33:48.000Z,40.7
2023-02-06T00:34:58.000Z,40.7
2023-02-06T00:36:08.000Z,40.7
2023-02-06T00:37:18.000Z,40.7
2023-02-06T00:38:28.000Z,40.7
2023-02-06T00:39:38.894Z,40.7
2023-02-06T00:40:49.016Z,40.7
2023-02-06T00:41:59.000Z,40.7
2023-02-06T00:43:09.000Z,40.7
2023-02-06T00:44:19.000Z,40.7
2023-02-06T00:45:29.000Z,40.6
2023-02-06T00:46:38.000Z,40.6
2023-02-06T00:47:48.000Z,40.6
2023-02-06T00:48:58.000Z,40.6
2023-02-06T00:50:08.000Z,40.6
2023-02-06T00:51:19.000Z,40.6
2023-02-06T00:52:29.000Z,40.6
2023-02-06T00:53:39.000Z,40.6
2023-02-06T00:54:49.000Z,40.6
2023-02-06T00:55:59.000Z,40.6
2023-02-06T00:57:09.000Z,40.6
2023-02-06T00:58:19.000Z,40.6
2023-02-06T00:59:29.000Z,40.6
2023-02-06T01:00:39.998Z,40.6
2023-02-06T01:01:49.135Z,40.6
2023-02-06T01:02:59.251Z,40.6
2023-02-06T01:04:09.000Z,40.6
2023-02-06T01:05:19.472Z,40.6
2023-02-06T01:06:29.000Z,40.6
2023-02-06T01:07:39.000Z,40.6
2023-02-06T01:08:49.000Z,40.6
2023-02-06T01:09:59.938Z,40.6
2023-02-06T01:11:10.062Z,40.6
2023-02-06T01:12:20.176Z,40.6
2023-02-06T01:13:30.000Z,40.6
2023-02-06T01:14:40.402Z,40.6
2023-02-06T01:15:50.520Z,40.6
2023-02-06T01:16:59.000Z,40.6
2023-02-06T01:18:09.781Z,40.5
2023-02-06T01:19:19.000Z,40.5
2023-02-06T01:20:30.000Z,40.5
2023-02-06T01:21:40.121Z,40.5
2023-02-06T01:22:50.233Z,40.5
2023-02-06T01:24:00.000Z,40.5
2023-02-06T01:25:10.464Z,40.5
2023-02-06T01:26:20.000Z,40.5
2023-02-06T01:27:30.699Z,40.5
2023-02-06T01:28:40.000Z,40.5
2023-02-06T01:29:50.925Z,40.5
2023-02-06T01:31:01.000Z,40.5
2023-02-06T01:32:10.000Z,40.5
2023-02-06T01:33:20.285Z,40.5
2023-02-06T01:34:30.000Z,40.5
2023-02-06T01:35:40.000Z,40.5
2023-02-06T01:36:50.000Z,40.5
2023-02-06T01:38:00.000Z,40.5
2023-02-06T01:39:10.000Z,40.5
2023-02-06T01:40:20.000Z,40.5
2023-02-06T01:41:31.100Z,40.5
2023-02-06T01:42:41.000Z,40.5
2023-02-06T01:43:51.000Z,40.5
2023-02-06T01:45:01.000Z,40.4
2023-02-06T01:46:11.557Z,40.4
2023-02-06T01:47:20.690Z,40.4
2023-02-06T01:48:30.000Z,40.4
2023-02-06T01:49:40.000Z,40.4
2023-02-06T01:50:51.000Z,40.4
2023-02-06T01:52:01.000Z,40.4
2023-02-06T01:53:11.271Z,40.4
2023-02-06T01:54:21.389Z,40.4
2023-02-06T01:55:31.500Z,40.4
2023-02-06T01:56:41.000Z,40.4
2023-02-06T01:57:51.000Z,40.4
2023-02-06T01:59:01.000Z,40.4
2023-02-06T02:00:11.971Z,40.4
2023-02-06T02:01:22.000Z,40.4
2023-02-06T02:02:31.000Z,40.4
2023-02-06T02:03:41.331Z,40.4
2023-02-06T02:04:51.452Z,40.4
2023-02-06T02:06:01.000Z,40.4
2023-02-06T02:07:11.677Z,40.4
2023-02-06T02:08:21.800Z,40.4
2023-02-06T02:09:31.909Z,40.4
2023-02-06T02:10:42.000Z,40.4
2023-02-06T02:11:52.137Z,40.4
2023-02-06T02:13:02.000Z,40.3
2023-02-06T02:14:12.370Z,40.3
2023-02-06T02:15:22.000Z,40.3
2023-02-06T02:16:32.000Z,40.3
2023-02-06T02:17:41.736Z,40.3
2023-02-06T02:18:51.848Z,40.3
2023-02-06T02:20:01.000Z,40.3
2023-02-06T02:21:12.080Z,40.3
2023-02-06T02:22:22.000Z,40.3
2023-02-06T02:23:32.313Z,40.3
2023-02-06T02:24:42.431Z,40.3
2023-02-06T02:25:52.000Z,40.3
2023-02-06T02:27:02.000Z,40.3
2023-02-06T02:28:12.777Z,40.3
2023-02-06T02:29:22.000Z,40.3
2023-02-06T02:30:33.000Z,40.3
2023-02-06T02:31:43.138Z,40.3
2023-02-06T02:32:52.259Z,40.3
2023-02-06T02:34:02.000Z,40.3
2023-02-06T02:35:12.000Z,40.3
2023-02-06T02:36:22.000Z,40.3
2023-02-06T02:37:32.000Z,40.3
2023-02-06T02:38:42.000Z,40.3
2023-02-06T02:39:52.949Z,40.2
2023-02-06T02:41:03.000Z,40.2
2023-02-06T02:42:13.000Z,40.2
2023-02-06T02:43:23.304Z,40.2
2023-02-06T02:44:33.000Z,40.2
2023-02-06T02:45:43.547Z,40.2
2023-02-06T02:46:53.000Z,40.2
2023-02-06T02:48:02.000Z,40.2
2023-02-06T02:49:12.000Z,40.2
2023-02-06T02:50:23.007Z,40.2
2023-02-06T02:51:33.127Z,40.2
2023-02-06T02:52:43.250Z,40.2
2023-02-06T02:53:53.000Z,40.2
2023-02-06T02:55:03.490Z,40.2
2023-02-06T02:56:13.587Z,40.2
2023-02-06T02:57:23.000Z,40.2
2023-02-06T02:58:33.000Z,40.2
2023-02-06T02:59:43.943Z,40.2
2023-02-06T03:00:54.000Z,40.2
2023-02-06T03:02:04.000Z,40.2
2023-02-06T03:03:13.000Z,40.2
2023-02-06T03:04:23.432Z,40.1
2023-02-06T03:05:33.000Z,40.1
2023-02-06T03:06:43.648Z,40.1
2023-02-06T03:07:53.763Z,40.1
2023-02-06T03:09:03.000Z,40.1
2023-02-06T03:10:13.997Z,40.1
2023-02-06T03:11:24.110Z,40.1
2023-02-06T03:12:34.000Z,40.1
2023-02-06T03:13:44.000Z,40.1
2023-02-06T03:14:54.000Z,40.1
2023-02-06T03:16:04.000Z,40.1
2023-02-06T03:17:14.000Z,40.1
2023-02-06T03:18:23.819Z,40.1
2023-02-06T03:19:33.937Z,40.1
2023-02-06T03:20:44.000Z,40.1
2023-02-06T03:21:54.000Z,40.1
2023-02-06T03:23:04.288Z,40.1
2023-02-06T03:24:14.000Z,40.1
2023-02-06T03:25:24.000Z,40.1
2023-02-06T03:26:34.000Z,40.1
2023-02-06T03:27:44.752Z,40.1
2023-02-06T03:28:54.000Z,40.1
2023-02-06T03:30:04.000Z,40.1
2023-02-06T03:31:15.098Z,40
2023-02-06T03:32:25.000Z,40
2023-02-06T03:33:34.000Z,40
2023-02-06T03:34:44.456Z,40
2023-02-06T03:35:54.000Z,40
2023-02-06T03:37:04.698Z,40
2023-02-06T03:38:14.000Z,40
2023-02-06T03:39:24.924Z,40
2023-02-06T03:40:34.058Z,40
2023-02-06T03:41:44.181Z,40
2023-02-06T03:42:54.289Z,40
2023-02-06T03:44:04.412Z,40
2023-02-06T03:45:14.000Z,40
2023-02-06T03:46:24.000Z,40
2023-02-06T03:47:34.000Z,40
2023-02-06T03:48:44.871Z,40
2023-02-06T03:49:54.990Z,40
2023-02-06T03:51:05.000Z,39.9
2023-02-06T03:52:15.000Z,40
2023-02-06T03:53:25.335Z,39.9
2023-02-06T03:54:35.000Z,39.9
2023-02-06T03:55:44.000Z,40
2023-02-06T03:56:54.000Z,39.9
2023-02-06T03:58:04.000Z,39.9
2023-02-06T03:59:14.000Z,39.9
2023-02-06T04:00:25.042Z,39.9
2023-02-06T04:01:35.000Z,39.9
2023-02-06T04:02:45.000Z,39.9
2023-02-06T04:03:55.000Z,39.9
2023-02-06T04:05:05.506Z,39.9
2023-02-06T04:06:15.000Z,39.9
2023-02-06T04:07:25.739Z,39.9
2023-02-06T04:08:35.000Z,39.9
2023-02-06T04:09:45.976Z,39.8
2023-02-06T04:10:55.103Z,39.8
2023-02-06T04:12:05.000Z,39.8
2023-02-06T04:13:15.000Z,39.7
2023-02-06T04:14:25.000Z,39.7
2023-02-06T04:15:35.566Z,39.6
2023-02-06T04:16:45.000Z,39.5
2023-02-06T04:17:55.000Z,39.5
2023-02-06T04:19:05.000Z,39.4
2023-02-06T04:20:16.043Z,39.3
2023-02-06T04:21:26.000Z,39.3
2023-02-06T04:22:36.000Z,39.3
2023-02-06T04:23:46.000Z,39.2
2023-02-06T04:24:56.000Z,39.2
2023-02-06T04:26:05.000Z,39.1
2023-02-06T04:27:15.000Z,39
2023-02-06T04:28:25.000Z,39
2023-02-06T04:29:35.973Z,38.8
2023-02-06T04:30:46.000Z,38.8
2023-02-06T04:31:56.000Z,38.7
2023-02-06T04:33:06.000Z,38.7
2023-02-06T04:34:16.000Z,38.6
2023-02-06T04:35:26.000Z,38.5
2023-02-06T04:36:36.000Z,38.5
2023-02-06T04:37:46.000Z,38.4
2023-02-06T04:38:56.902Z,38.4
2023-02-06T04:40:07.000Z,38.3
2023-02-06T04:41:16.000Z,38.2
2023-02-06T04:42:26.260Z,38.2
2023-02-06T04:43:36.000Z,38.1
2023-02-06T04:44:46.498Z,38.1
2023-02-06T04:45:56.000Z,38
2023-02-06T04:47:06.000Z,38
2023-02-06T04:48:16.000Z,37.9
2023-02-06T04:49:26.000Z,37.8
2023-02-06T04:50:37.000Z,37.8
2023-02-06T04:51:47.000Z,37.7
2023-02-06T04:52:57.000Z,37.7
2023-02-06T04:54:07.000Z,37.6
2023-02-06T04:55:17.537Z,37.5
2023-02-06T04:56:26.000Z,37.5
2023-02-06T04:57:36.000Z,37.4
2023-02-06T04:58:46.903Z,37.4
2023-02-06T04:59:57.000Z,37.3
2023-02-06T05:01:07.130Z,37.3
2023-02-06T05:02:17.000Z,37.1
2023-02-06T05:03:27.000Z,37.1
2023-02-06T05:04:37.486Z,37
2023-02-06T05:05:47.000Z,37
2023-02-06T05:06:57.000Z,37
2023-02-06T05:08:07.825Z,36.9
2023-02-06T05:09:17.000Z,36.9
2023-02-06T05:10:28.000Z,36.9
2023-02-06T05:11:37.000Z,36.8
2023-02-06T05:12:47.312Z,36.8
2023-02-06T05:13:57.000Z,36.7
2023-02-06T05:15:07.540Z,36.7
2023-02-06T05:16:17.000Z,36.7
2023-02-06T05:17:27.000Z,36.6
2023-02-06T05:18:37.000Z,36.6
2023-02-06T05:19:48.000Z,36.6
2023-02-06T05:20:58.123Z,36.6
2023-02-06T05:22:08.000Z,36.5
2023-02-06T05:23:18.000Z,36.5
2023-02-06T05:24:28.461Z,36.5
2023-02-06T05:25:38.000Z,36.5
2023-02-06T05:26:47.000Z,36.5
2023-02-06T05:27:57.000Z,36.4
2023-02-06T05:29:07.000Z,36.4
2023-02-06T05:30:18.000Z,36.4
2023-02-06T05:31:28.000Z,36.3
2023-02-06T05:32:38.000Z,36.4
2023-02-06T05:33:48.410Z,36.3
2023-02-06T05:34:58.000Z,36.3
2023-02-06T05:36:08.647Z,36.3
2023-02-06T05:37:18.757Z,36.2
2023-02-06T05:38:28.000Z,36.2
2023-02-06T05:39:38.989Z,36.2
2023-02-06T05:40:49.000Z,36.2
2023-02-06T05:41:58.000Z,36.2
2023-02-06T05:43:08.347Z,36.2
2023-02-06T05:44:18.000Z,36.2
2023-02-06T05:45:28.000Z,36.1
2023-02-06T05:46:38.704Z,36.1
2023-02-06T05:47:48.000Z,36.1
2023-02-06T05:48:58.000Z,36
2023-02-06T05:50:09.000Z,36.1
2023-02-06T05:51:19.163Z,36
2023-02-06T05:52:29.000Z,36
2023-02-06T05:53:39.000Z,36
2023-02-06T05:54:49.514Z,36
2023-02-06T05:55:59.633Z,36
2023-02-06T05:57:08.761Z,36
2023-02-06T05:58:18.870Z,35.9
2023-02-06T05:59:28.999Z,35.9
2023-02-06T06:00:39.000Z,35.8
2023-02-06T06:01:49.225Z,35.8
2023-02-06T06:02:59.338Z,35.6
2023-02-06T06:04:09.453Z,35.5
2023-02-06T06:05:19.576Z,35.4
2023-02-06T06:06:29.691Z,35.2
2023-02-06T06:07:39.804Z,35.2
2023-02-06T06:08:49.931Z,35
2023-02-06T06:10:00.043Z,35
2023-02-06T06:11:10.156Z,34.9
2023-02-06T06:12:19.000Z,34.9
2023-02-06T06:13:29.000Z,34.8
2023-02-06T06:14:39.515Z,34.7
2023-02-06T06:15:49.000Z,34.7
2023-02-06T06:16:59.741Z,34.5
2023-02-06T06:18:09.862Z,34.5
2023-02-06T06:19:19.974Z,34.5
2023-02-06T06:20:30.105Z,34.5
2023-02-06T06:21:40.224Z,34.3
2023-02-06T06:22:50.332Z,34.3
2023-02-06T06:24:00.000Z,34.2
2023-02-06T06:25:10.000Z,34.2
2023-02-06T06:26:20.000Z,34.1
2023-02-06T06:27:29.000Z,34.1
2023-02-06T06:28:39.926Z,34.1
2023-02-06T06:29:50.050Z,34.1
2023-02-06T06:31:00.163Z,34
2023-02-06T06:32:10.279Z,34
2023-02-06T06:33:20.397Z,34
2023-02-06T06:34:30.531Z,33.9
2023-02-06T06:35:40.619Z,33.9
2023-02-06T06:36:50.000Z,33.9
2023-02-06T06:38:00.859Z,33.8
2023-02-06T06:39:10.975Z,33.8
2023-02-06T06:40:21.000Z,33.8
2023-02-06T06:41:31.000Z,33.8
2023-02-06T06:42:40.335Z,33.8
2023-02-06T06:43:50.454Z,33.7
2023-02-06T06:45:00.559Z,33.7
2023-02-06T06:46:10.675Z,33.6
2023-02-06T06:47:20.795Z,33.6
2023-02-06T06:48:30.918Z,33.6
2023-02-06T06:49:41.024Z,33.6
2023-02-06T06:50:51.140Z,33.6
2023-02-06T06:52:01.264Z,33.6
2023-02-06T06:53:11.382Z,33.5
2023-02-06T06:54:21.491Z,33.5
2023-02-06T06:55:31.605Z,33.5
2023-02-06T06:56:41.720Z,33.5
2023-02-06T06:57:50.864Z,33.4
2023-02-06T06:59:00.000Z,33.4
2023-02-06T07:00:11.083Z,33.4
2023-02-06T07:01:21.000Z,33.4
2023-02-06T07:02:31.321Z,33.4
2023-02-06T07:03:41.436Z,33.3
2023-02-06T07:04:51.545Z,33.3
2023-02-06T07:06:01.000Z,33.3
2023-02-06T07:07:11.000Z,33.3
2023-02-06T07:08:21.890Z,33.3
2023-02-06T07:09:32.000Z,33.3
2023-02-06T07:10:42.129Z,33.3
2023-02-06T07:11:52.000Z,33.3
2023-02-06T07:13:01.000Z,33.3
2023-02-06T07:14:11.000Z,33.2
2023-02-06T07:15:21.000Z,33.2
2023-02-06T07:16:31.000Z,33.2
2023-02-06T07:17:41.839Z,33.2
2023-02-06T07:18:51.000Z,33.2
2023-02-06T07:20:02.000Z,33.2
2023-02-06T07:21:12.183Z,33.2
2023-02-06T07:22:22.000Z,33.2
2023-02-06T07:23:32.000Z,33.2
2023-02-06T07:24:42.000Z,33.1
2023-02-06T07:25:52.000Z,33.1
2023-02-06T07:27:02.000Z,33.1
2023-02-06T07:28:11.000Z,33.1
2023-02-06T07:29:22.000Z,33.1
2023-02-06T07:30:32.000Z,33.1
2023-02-06T07:31:42.000Z,33.1
2023-02-06T07:32:52.000Z,33.1
2023-02-06T07:34:02.474Z,33.1
2023-02-06T07:35:11.000Z,33.1
2023-02-06T07:36:21.000Z,33
2023-02-06T07:37:31.000Z,33
2023-02-06T07:38:41.000Z,33.1
2023-02-06T07:39:52.074Z,33
2023-02-06T07:41:02.000Z,33
2023-02-06T07:42:12.313Z,33
2023-02-06T07:43:22.427Z,33
2023-02-06T07:44:32.000Z,33
2023-02-06T07:45:42.662Z,33
2023-02-06T07:46:52.777Z,33
2023-02-06T07:48:02.000Z,33
2023-02-06T07:49:13.011Z,33
2023-02-06T07:50:22.138Z,33
2023-02-06T07:51:32.251Z,32.9
2023-02-06T07:52:42.382Z,33
2023-02-06T07:53:52.484Z,33
2023-02-06T07:55:02.000Z,33
2023-02-06T07:56:12.000Z,33
2023-02-06T07:57:22.000Z,32.9
2023-02-06T07:58:32.954Z,32.9
2023-02-06T07:59:43.067Z,32.9
2023-02-06T08:00:53.184Z,32.9
2023-02-06T08:02:03.300Z,32.9
2023-02-06T08:03:13.421Z,32.9
2023-02-06T08:04:23.532Z,32.8
2023-02-06T08:05:32.000Z,32.8
2023-02-06T08:06:42.782Z,32.8
2023-02-06T08:07:52.000Z,32.8
2023-02-06T08:09:03.000Z,32.8
2023-02-06T08:10:13.000Z,32.8
2023-02-06T08:11:23.000Z,32.8
2023-02-06T08:12:33.000Z,33.3
2023-02-06T08:13:43.000Z,33.4
2023-02-06T08:14:53.000Z,33.4
2023-02-06T08:16:03.000Z,33.6
2023-02-06T08:17:13.829Z,33.7
2023-02-06T08:18:23.000Z,33.6
2023-02-06T08:19:34.069Z,33.8
2023-02-06T08:20:43.205Z,33.7
2023-02-06T08:21:53.317Z,33.9
2023-02-06T08:23:03.000Z,33.9
2023-02-06T08:24:13.546Z,33.9
2023-02-06T08:25:23.000Z,34
2023-02-06T08:26:33.773Z,34
2023-02-06T08:27:43.887Z,34
2023-02-06T08:28:54.000Z,34.1
2023-02-06T08:30:04.000Z,34.2
2023-02-06T08:31:14.235Z,34
2023-02-06T08:32:24.352Z,34
2023-02-06T08:33:34.469Z,34.1
2023-02-06T08:34:44.000Z,34.1
2023-02-06T08:35:53.000Z,34
2023-02-06T08:37:03.835Z,34
2023-02-06T08:38:13.000Z,34
2023-02-06T08:39:24.064Z,33.9
2023-02-06T08:40:34.000Z,33.8
2023-02-06T08:41:44.000Z,33.7
2023-02-06T08:42:54.000Z,33.7
2023-02-06T08:44:04.530Z,33.5
2023-02-06T08:45:14.000Z,33.5
2023-02-06T08:46:24.776Z,33.5
2023-02-06T08:47:34.000Z,33.5
2023-02-06T08:48:45.000Z,33.5
2023-02-06T08:49:55.000Z,33.5
2023-02-06T08:51:04.000Z,33.4
2023-02-06T08:52:14.363Z,33.4
2023-02-06T08:53:24.000Z,33.4
2023-02-06T08:54:34.000Z,33.3
2023-02-06T08:55:44.000Z,33.3
2023-02-06T08:56:54.000Z,33.3
2023-02-06T08:58:04.000Z,33.3
2023-02-06T08:59:15.000Z,33.3
2023-02-06T09:00:25.000Z,33.3
2023-02-06T09:01:35.000Z,33.2
2023-02-06T09:02:45.404Z,33.2
2023-02-06T09:03:55.000Z,33.2
2023-02-06T09:05:05.640Z,33.2
2023-02-06T09:06:14.776Z,33.2
2023-02-06T09:07:24.899Z,33.2
2023-02-06T09:08:35.000Z,33.2
2023-02-06T09:09:45.123Z,33.2
2023-02-06T09:10:55.000Z,33.2
2023-02-06T09:12:05.358Z,33.2
2023-02-06T09:13:15.000Z,33.2
2023-02-06T09:14:25.583Z,33.2
2023-02-06T09:15:35.000Z,33.2
2023-02-06T09:16:45.826Z,33.2
2023-02-06T09:17:55.000Z,33.2
2023-02-06T09:19:06.051Z,33.2
2023-02-06T09:20:16.000Z,33.2
2023-02-06T09:21:25.000Z,33.2
2023-02-06T09:22:35.415Z,33.2
2023-02-06T09:23:45.000Z,33.3
2023-02-06T09:24:55.649Z,33.2
2023-02-06T09:26:05.000Z,33.3
2023-02-06T09:27:15.880Z,33.2
2023-02-06T09:28:25.000Z,33.2
2023-02-06T09:29:36.126Z,33.3
2023-02-06T09:30:46.232Z,33.3
2023-02-06T09:31:56.000Z,33.3
2023-02-06T09:33:06.457Z,33.3
2023-02-06T09:34:16.581Z,33.4
2023-02-06T09:35:26.693Z,33.3
2023-02-06T09:36:35.000Z,33.4
2023-02-06T09:37:45.936Z,33.4
2023-02-06T09:38:56.000Z,33.4
2023-02-06T09:40:06.172Z,33.4
2023-02-06T09:41:16.289Z,33.4
2023-02-06T09:42:26.000Z,33.4
2023-02-06T09:43:36.000Z,33.5
2023-02-06T09:44:46.000Z,33.4
2023-02-06T09:45:56.000Z,33.5
2023-02-06T09:47:06.870Z,33.5
2023-02-06T09:48:16.000Z,33.5
2023-02-06T09:49:27.099Z,33.5
2023-02-06T09:50:37.217Z,33.5
2023-02-06T09:51:46.000Z,33.5
2023-02-06T09:52:56.000Z,33.5
2023-02-06T09:54:06.000Z,33.5
2023-02-06T09:55:16.707Z,33.5
2023-02-06T09:56:26.000Z,33.5
2023-02-06T09:57:36.000Z,33.5
2023-02-06T09:58:47.000Z,33.5
2023-02-06T09:59:57.000Z,33.6
2023-02-06T10:01:07.000Z,33.6
2023-02-06T10:02:17.000Z,33.6
2023-02-06T10:03:27.000Z,33.6
2023-02-06T10:04:37.630Z,33.7
2023-02-06T10:05:47.000Z,33.7
2023-02-06T10:06:56.000Z,33.7
2023-02-06T10:08:06.996Z,33.7
2023-02-06T10:09:17.000Z,33.7
2023-02-06T10:10:27.221Z,33.7
2023-02-06T10:11:37.000Z,33.7
2023-02-06T10:12:47.000Z,33.7
2023-02-06T10:13:57.000Z,33.8
2023-02-06T10:15:07.000Z,33.8
2023-02-06T10:16:17.000Z,33.8
2023-02-06T10:17:27.000Z,33.8
2023-02-06T10:18:38.037Z,33.8
2023-02-06T10:19:48.000Z,33.9
2023-02-06T10:20:58.000Z,33.9
2023-02-06T10:22:07.000Z,33.9
2023-02-06T10:23:17.523Z,33.9
2023-02-06T10:24:27.000Z,33.9
2023-02-06T10:25:37.000Z,34
2023-02-06T10:26:47.000Z,34
2023-02-06T10:27:57.000Z,34
2023-02-06T10:29:08.097Z,34
2023-02-06T10:30:18.000Z,34
2023-02-06T10:31:28.327Z,34
2023-02-06T10:32:38.000Z,34
2023-02-06T10:33:48.000Z,34
2023-02-06T10:34:58.681Z,34
2023-02-06T10:36:08.000Z,34
2023-02-06T10:37:17.000Z,34
2023-02-06T10:38:28.043Z,34
2023-02-06T10:39:38.157Z,34
2023-02-06T10:40:48.273Z,34
2023-02-06T10:41:58.000Z,34
2023-02-06T10:43:08.509Z,34.1
2023-02-06T10:44:18.000Z,34.1
2023-02-06T10:45:28.000Z,34.1
2023-02-06T10:46:38.853Z,34.1
2023-02-06T10:47:48.000Z,34.1
2023-02-06T10:48:59.085Z,34.1
2023-02-06T10:50:09.208Z,34.1
2023-02-06T10:51:19.000Z,34.1
2023-02-06T10:52:28.000Z,34.1
2023-02-06T10:53:38.000Z,34.1
2023-02-06T10:54:48.000Z,34.1
2023-02-06T10:55:58.803Z,34.1
2023-02-06T10:57:08.000Z,34.1
2023-02-06T10:58:19.032Z,34.1
2023-02-06T10:59:29.000Z,34.1
2023-02-06T11:00:39.000Z,34.1
2023-02-06T11:01:49.000Z,34.1
2023-02-06T11:02:59.501Z,34.1
2023-02-06T11:04:09.607Z,34.1
2023-02-06T11:05:19.732Z,34.2
2023-02-06T11:07:39.000Z,34.2
2023-02-06T11:08:49.000Z,34.2
2023-02-06T11:09:59.203Z,34.2
2023-02-06T11:11:09.000Z,34.2
2023-02-06T11:12:19.437Z,34.3
2023-02-06T11:13:29.551Z,34.3
2023-02-06T11:14:39.000Z,34.3
2023-02-06T11:15:49.787Z,34.3
2023-02-06T11:16:59.000Z,34.3
2023-02-06T11:18:10.000Z,34.3
2023-02-06T11:19:20.140Z,34.3
2023-02-06T11:20:30.000Z,34.3
2023-02-06T11:21:40.000Z,34.3
2023-02-06T11:22:50.000Z,34.3
2023-02-06T11:23:59.000Z,34.3
2023-02-06T11:25:09.000Z,34.3
2023-02-06T11:26:19.857Z,34.3
2023-02-06T11:27:29.000Z,34.3
2023-02-06T11:28:40.000Z,34.3
2023-02-06T11:29:49.000Z,34.3
2023-02-06T11:30:59.331Z,34.3
2023-02-06T11:32:09.000Z,34.3
2023-02-06T11:33:19.560Z,34.3
2023-02-06T11:34:29.000Z,34.4
2023-02-06T11:35:39.000Z,34.4
2023-02-06T11:36:49.915Z,34.4
2023-02-06T11:38:00.000Z,34.4
2023-02-06T11:39:10.000Z,34.4
2023-02-06T11:40:20.267Z,34.6
2023-02-06T11:41:30.000Z,34.6
2023-02-06T11:42:40.493Z,34.5
2023-02-06T11:43:50.000Z,34.5
2023-02-06T11:44:59.000Z,34.5
2023-02-06T11:46:09.000Z,34.5
2023-02-06T11:47:19.000Z,34.5
2023-02-06T11:48:30.084Z,34.5
2023-02-06T11:49:40.202Z,34.5
2023-02-06T11:50:50.318Z,34.5
2023-02-06T11:52:00.432Z,34.6
2023-02-06T11:53:10.551Z,34.6
2023-02-06T11:54:20.000Z,34.6
2023-02-06T11:55:30.000Z,34.6
2023-02-06T11:56:40.000Z,34.6
2023-02-06T11:57:51.000Z,34.6
2023-02-06T11:59:01.130Z,34.6
2023-02-06T12:00:10.258Z,34.5
2023-02-06T12:01:20.000Z,34.5
2023-02-06T12:02:30.000Z,34.5
2023-02-06T12:03:40.000Z,34.5
2023-02-06T12:04:50.000Z,34.5
2023-02-06T12:06:00.000Z,34.5
2023-02-06T12:07:10.000Z,34.5
2023-02-06T12:08:21.066Z,34.5
2023-02-06T12:09:31.000Z,34.5
2023-02-06T12:10:41.302Z,34.5
2023-02-06T12:11:51.000Z,34.4
2023-02-06T12:13:01.531Z,34.4
2023-02-06T12:14:11.000Z,34.4
2023-02-06T12:15:20.800Z,34.4
2023-02-06T12:16:30.000Z,34.4
2023-02-06T12:17:41.000Z,34.4
2023-02-06T12:18:51.129Z,34.4
2023-02-06T12:20:01.000Z,34.4
2023-02-06T12:21:11.000Z,34.3
2023-02-06T12:22:21.000Z,34.3
2023-02-06T12:23:31.000Z,34.3
2023-02-06T12:24:41.705Z,34.3
2023-02-06T12:25:51.819Z,34.3
2023-02-06T12:27:01.000Z,34.3
2023-02-06T12:28:12.000Z,34.3
2023-02-06T12:29:22.171Z,34.3
2023-02-06T12:30:31.000Z,34.3
2023-02-06T12:31:41.419Z,34.3
2023-02-06T12:32:51.000Z,34.3
2023-02-06T12:34:01.652Z,34.3
2023-02-06T12:35:11.000Z,34.3
2023-02-06T12:36:21.882Z,34.3
2023-02-06T12:37:31.999Z,34.5
2023-02-06T12:38:42.116Z,34.5
2023-02-06T12:39:52.000Z,34.6
2023-02-06T12:41:02.355Z,34.7
2023-02-06T12:42:12.467Z,34.8
2023-02-06T12:43:22.000Z,35
2023-02-06T12:44:32.000Z,34.9
2023-02-06T12:45:41.000Z,34.9
2023-02-06T12:46:51.939Z,34.9
2023-02-06T12:48:02.000Z,34.9
2023-02-06T12:49:12.175Z,34.9
2023-02-06T12:50:22.000Z,34.8
2023-02-06T12:51:32.411Z,34.8
2023-02-06T12:52:42.516Z,34.8
2023-02-06T12:53:52.645Z,34.8
2023-02-06T12:55:02.754Z,34.8
2023-02-06T12:56:12.874Z,34.8
2023-02-06T12:57:22.979Z,34.8
2023-02-06T12:59:43.210Z,34.7
2023-02-06T13:00:52.000Z,34.7
2023-02-06T13:02:02.472Z,34.7
2023-02-06T13:03:12.591Z,34.7
2023-02-06T13:04:22.000Z,34.7
2023-02-06T13:05:32.000Z,34.6
2023-02-06T13:06:42.000Z,34.6
2023-02-06T13:07:53.037Z,34.6
2023-02-06T13:09:03.161Z,34.6
2023-02-06T13:10:13.000Z,34.6
2023-02-06T13:11:23.000Z,34.6
2023-02-06T13:12:33.000Z,34.6
2023-02-06T13:13:43.622Z,34.6
2023-02-06T13:14:53.734Z,34.6
2023-02-06T13:16:02.000Z,34.6
2023-02-06T13:17:12.995Z,34.6
2023-02-06T13:18:23.000Z,34.6
2023-02-06T13:19:33.211Z,34.5
2023-02-06T13:20:43.000Z,34.6
2023-02-06T13:21:53.000Z,34.5
2023-02-06T13:23:03.000Z,34.5
2023-02-06T13:24:13.687Z,34.5
2023-02-06T13:25:23.790Z,34.5
2023-02-06T13:26:33.000Z,34.5
2023-02-06T13:27:44.000Z,34.5
2023-02-06T13:28:54.000Z,34.5
2023-02-06T13:30:04.000Z,34.4
2023-02-06T13:31:13.000Z,34.4
2023-02-06T13:32:23.508Z,34.4
2023-02-06T13:33:33.619Z,34.4
2023-02-06T13:34:43.000Z,34.3
2023-02-06T13:35:53.000Z,34.3
2023-02-06T13:37:03.000Z,34.3
2023-02-06T13:38:14.000Z,34.3
2023-02-06T13:39:24.000Z,34.3
2023-02-06T13:40:34.312Z,34.3
2023-02-06T13:41:44.433Z,34.2
2023-02-06T13:42:54.000Z,34.2
2023-02-06T13:44:04.000Z,34.2
2023-02-06T13:45:14.000Z,34.2
2023-02-06T13:46:23.925Z,34.2
2023-02-06T13:47:34.025Z,34.2
2023-02-06T13:48:44.000Z,34.2
2023-02-06T13:49:54.000Z,34.2
2023-02-06T13:51:04.000Z,34.1
2023-02-06T13:52:14.000Z,34.1
2023-02-06T13:53:24.610Z,34.1
2023-02-06T13:54:34.000Z,34.1
2023-02-06T13:55:44.000Z,34
2023-02-06T13:56:54.000Z,34.1
2023-02-06T13:58:05.000Z,34.1
2023-02-06T13:59:15.000Z,34.2
2023-02-06T14:00:25.000Z,34.3
2023-02-06T14:01:34.000Z,34.5
2023-02-06T14:02:44.000Z,34.4
2023-02-06T14:03:54.667Z,34.6
2023-02-06T14:05:04.780Z,34.6
2023-02-06T14:06:14.000Z,34.6
2023-02-06T14:07:25.015Z,34.7
2023-02-06T14:08:35.126Z,34.6
2023-02-06T14:09:45.000Z,34.7
2023-02-06T14:10:55.363Z,34.6
2023-02-06T14:12:05.000Z,34.6
2023-02-06T14:13:15.595Z,34.6
2023-02-06T14:14:25.000Z,34.6
2023-02-06T14:15:35.000Z,34.6
2023-02-06T14:16:44.000Z,34.6
2023-02-06T14:17:55.000Z,34.6
2023-02-06T14:19:05.187Z,34.5
2023-02-06T14:20:15.000Z,34.5
2023-02-06T14:21:25.417Z,34.5
2023-02-06T14:22:35.000Z,34.4
2023-02-06T14:23:45.000Z,34.3
2023-02-06T14:24:55.000Z,34.3
2023-02-06T14:26:05.887Z,34.3
2023-02-06T14:27:16.000Z,34.2
2023-02-06T14:28:26.000Z,34.2
2023-02-06T14:29:36.000Z,34.1
2023-02-06T14:30:46.000Z,34.1
2023-02-06T14:31:55.000Z,34
2023-02-06T14:33:05.000Z,33.8
2023-02-06T14:34:15.712Z,33.8
2023-02-06T14:35:25.000Z,33.7
2023-02-06T14:36:35.000Z,33.6
2023-02-06T14:37:46.000Z,33.6
2023-02-06T14:38:56.171Z,33.6
2023-02-06T14:40:06.000Z,33.5
2023-02-06T14:41:16.404Z,33.4
2023-02-06T14:42:26.000Z,33.3
2023-02-06T14:43:36.000Z,33.2
2023-02-06T14:44:46.000Z,33.2
2023-02-06T14:45:56.869Z,33.1
2023-02-06T14:47:06.000Z,33
2023-02-06T14:48:16.000Z,33
2023-02-06T14:49:26.000Z,33.2
2023-02-06T14:50:36.364Z,33.1
2023-02-06T14:51:46.481Z,33
2023-02-06T14:52:56.000Z,33.1
2023-02-06T14:54:06.700Z,32.9
2023-02-06T14:55:16.000Z,32.8
2023-02-06T14:56:26.928Z,32.8
2023-02-06T14:57:37.000Z,32.6
2023-02-06T14:58:47.000Z,32.6
2023-02-06T14:59:57.280Z,32.6
2023-02-06T15:01:07.397Z,32.6
2023-02-06T15:02:16.000Z,32.5
2023-02-06T15:03:26.643Z,32.5
2023-02-06T15:04:36.000Z,32.4
2023-02-06T15:05:46.871Z,32.5
2023-02-06T15:06:56.000Z,32.4
2023-02-06T15:08:07.000Z,32.4
2023-02-06T15:09:17.000Z,32.4
2023-02-06T15:10:27.000Z,32.3
2023-02-06T15:11:37.000Z,32.3
2023-02-06T15:12:47.000Z,32.3
2023-02-06T15:13:57.000Z,32.2
2023-02-06T15:15:07.799Z,32.2
2023-02-06T15:16:17.916Z,32.2
2023-02-06T15:17:27.045Z,32.2
2023-02-06T15:18:37.167Z,32.1
2023-02-06T15:19:47.000Z,32.2
2023-02-06T15:20:57.000Z,32.2
2023-02-06T15:22:07.512Z,32.2
2023-02-06T15:23:17.627Z,32.1
2023-02-06T15:24:26.000Z,32.1
2023-02-06T15:25:36.000Z,32.1
2023-02-06T15:26:47.000Z,32.1
2023-02-06T15:27:57.113Z,32.1
2023-02-06T15:29:07.000Z,32.1
2023-02-06T15:30:17.000Z,32.3
2023-02-06T15:31:27.459Z,32.3
2023-02-06T15:32:37.576Z,32.3
2023-02-06T15:33:47.690Z,32.3
2023-02-06T15:34:57.000Z,32.3
2023-02-06T15:36:07.000Z,32.3
2023-02-06T15:37:18.043Z,32.3
2023-02-06T15:38:28.000Z,32.3
2023-02-06T15:39:37.312Z,32.3
2023-02-06T15:40:47.000Z,32.3
2023-02-06T15:41:57.530Z,32.3
2023-02-06T15:43:07.639Z,32.4